Hersham, United Kingdom

6:47 PM BST on August 30, 2015 (GMT +0100)
Hersham | | Change Station
CLOSE
Current Station
Personal Weather Station
Location: Walton-on-Thames, Surrey
Elevation: 56 ft
Nearby Weather Stations

Elev 56 ft 51.37 °N, 0.41 °W | Updated 1 second ago

Mostly Cloudy
Mostly Cloudy
64.9 °F
Feels Like 64.9 °F
N
2.0
Wind Variable Wind from SE
Gusts 2.0 mph

Today
High -- | Low -- °F
--% Chance of Precip.
Yesterday
High -- | Low -- °F
Precip. -- in
6:10 AM 7:53 PM
Full, 99% visible
Pressure 30.04 in
Visibility 6.2 miles
Clouds Mostly Cloudy 1700 ft
Dew Point 60 °F
Humidity 83%
Rainfall 0.00 in
Snow Depth Not available.
UV 0 out of 12
Pollen Not available.
Air Quality Not available.
Flu Activity Not available.
METAR EGLL 301720Z 02007KT 350V050 9999 BKN017 18/14 Q1017 TEMPO BKN014
Pressure 30.04 in
Visibility 6.2 miles
Clouds Mostly Cloudy 1700 ft
Dew Point 60 °F
Humidity 83%
Rainfall 0.00 in
Snow Depth Not available.
UV 0 out of 12
Pollen Not available.
Air Quality Not available.
Flu Activity Not available.
METAR EGLL 301720Z 02007KT 350V050 9999 BKN017 18/14 Q1017 TEMPO BKN014

10-Day Weather Forecast

×

Almanac

Astronomy

Aug. 30, 2015 Rise Set
Actual Time
Civil Twilight
Nautical Twilight
Astronomical Twilight
Moon
Length of Visible Light
Length of Day
Tomorrow will be .
, % of the Moon is Illuminated

Today's Extremes

Country Highs Country Lows

Community

WunderPhotos

Upload Photos

1,851,014 photos uploaded!

WunderBlogs® & News

Nearby

Air Quality

  Air Quality AQ Index Pollutant
Not available.

Snow Depth

Station Depth Elevation

Earthquake Activity

City Distance Mag. Time & Date
Minimum magnitude displayed is 2.5.

Coastal Water Temperatures

Place Temperature

Stations

Nearby Weather Stations

Station Location Temp. Windchill Dew Point Humidity Wind Precip. Elev Updated Type